PWSweather.com
Personal Weather Stations
Station Observations
KMICHEBO10
Cordwood Point, Lake Huron, Cheboygan, MI 49721

Cordwood Point, Lake HuronCheboygan, MI 49721

Lat: 45.663372, Lon: -84.3327789

Elevation: 584

Station Type: Davis Vantage Pro2 Wireless

http://www.lakehuronweather.org

Latest ConditionsUpdated 5:50:01 PM EST Sunday, Dec 9, 2018
Currently Today's Max Today's Min Today's Average
Temperature 28.8°F-1.8°C 29.4°F-1.4°C 21.7°F-5.7°C 26.4°F-3.1°C
Dew Point 24.3°F-4.3°C 26.0°F-3.3°C 19.2°F-7.1°C 23.2°F-4.9°C
Winds 3.5 mph WSW5.6 kmh WSW 5.8 mph -9.3 kmh - - 2.2 mph 3.5 kmh
Wind Gusts 5.8 mph9.3 kmh 11.5 mph18.5 kmh - -
Humidity 83% 94% 83% 88%
Pressure 30.23 in1023.7 mb 30.38 in1028.8 mb 30.23 in1023.7 mb -
Hour Temp Dew Point Humidity Winds Wind Gusts Pressure Precip Precip Rate Daily Precip Total
05:50 PM 28.8°F-1.8°C 24.3°F-4.3°C 83% 3.5 mph WSW5.6 kmh WSW 5.8 mph9.3 kmh 30.23 in1023.7 mb - 0.00 in0.0 mm 0.00 in0.0 mm
05:40 PM 28.8°F-1.8°C 24.6°F-4.1°C 84% 1.2 mph WSW1.9 kmh WSW 2.3 mph3.7 kmh 30.23 in1023.7 mb - 0.00 in0.0 mm 0.00 in0.0 mm
05:30 PM 28.9°F-1.7°C 24.4°F-4.2°C 83% 3.5 mph SW5.6 kmh SW 8.1 mph13.0 kmh 30.24 in1024.0 mb - 0.00 in0.0 mm 0.00 in0.0 mm
05:20 PM 29.0°F-1.7°C 24.8°F-4.0°C 84% 1.2 mph SW1.9 kmh SW 4.6 mph7.4 kmh 30.23 in1023.7 mb - 0.00 in0.0 mm 0.00 in0.0 mm
05:10 PM 29.0°F-1.7°C 24.5°F-4.2°C 83% 2.3 mph S3.7 kmh S 3.5 mph5.6 kmh 30.23 in1023.7 mb - 0.00 in0.0 mm 0.00 in0.0 mm
05:00 PM 29.1°F-1.6°C 24.9°F-3.9°C 84% 2.3 mph SW3.7 kmh SW 6.9 mph11.1 kmh 30.23 in1023.7 mb - 0.00 in0.0 mm 0.00 in0.0 mm
04:50 PM 29.1°F-1.6°C 24.9°F-3.9°C 84% 2.3 mph SW3.7 kmh SW 3.5 mph5.6 kmh 30.23 in1023.7 mb - 0.00 in0.0 mm 0.00 in0.0 mm
04:40 PM 29.2°F-1.6°C 25.0°F-3.9°C 84% 1.2 mph SW1.9 kmh SW 9.2 mph14.8 kmh 30.23 in1023.7 mb - 0.00 in0.0 mm 0.00 in0.0 mm
04:30 PM 29.2°F-1.6°C 25.0°F-3.9°C 84% 4.6 mph SSW7.4 kmh SSW 8.1 mph13.0 kmh 30.23 in1023.7 mb - 0.00 in0.0 mm 0.00 in0.0 mm
04:20 PM 29.3°F-1.5°C 25.1°F-3.8°C 84% 1.2 mph SW1.9 kmh SW 3.5 mph5.6 kmh 30.23 in1023.7 mb - 0.00 in0.0 mm 0.00 in0.0 mm
04:10 PM 29.4°F-1.4°C 25.2°F-3.8°C 84% 2.3 mph W3.7 kmh W 4.6 mph7.4 kmh 30.23 in1023.7 mb - 0.00 in0.0 mm 0.00 in0.0 mm
04:00 PM 29.4°F-1.4°C 25.4°F-3.7°C 85% 2.3 mph SW3.7 kmh SW 5.8 mph9.3 kmh 30.23 in1023.7 mb - 0.00 in0.0 mm 0.00 in0.0 mm
03:50 PM 29.4°F-1.4°C 25.4°F-3.7°C 85% 3.5 mph WSW5.6 kmh WSW 10.4 mph16.7 kmh 30.23 in1023.7 mb - 0.00 in0.0 mm 0.00 in0.0 mm
03:40 PM 29.4°F-1.4°C 25.7°F-3.5°C 86% 1.2 mph N1.9 kmh N 2.3 mph3.7 kmh 30.23 in1023.7 mb - 0.00 in0.0 mm 0.00 in0.0 mm
03:30 PM 29.3°F-1.5°C 25.6°F-3.6°C 86% 1.2 mph NNE1.9 kmh NNE 5.8 mph9.3 kmh 30.23 in1023.7 mb - 0.00 in0.0 mm 0.00 in0.0 mm
03:20 PM 29.3°F-1.5°C 25.9°F-3.4°C 87% 1.2 mph WSW1.9 kmh WSW 3.5 mph5.6 kmh 30.23 in1023.7 mb - 0.00 in0.0 mm 0.00 in0.0 mm
03:10 PM 29.3°F-1.5°C 25.6°F-3.6°C 86% 2.3 mph WNW3.7 kmh WNW 4.6 mph7.4 kmh 30.23 in1023.7 mb - 0.00 in0.0 mm 0.00 in0.0 mm
03:00 PM 29.2°F-1.6°C 25.5°F-3.6°C 86% 1.2 mph NW1.9 kmh NW 5.8 mph9.3 kmh 30.23 in1023.7 mb - 0.00 in0.0 mm 0.00 in0.0 mm
02:50 PM 29.0°F-1.7°C 25.4°F-3.7°C 86% 1.2 mph WNW1.9 kmh WNW 4.6 mph7.4 kmh 30.23 in1023.7 mb - 0.00 in0.0 mm 0.00 in0.0 mm
02:40 PM 28.9°F-1.7°C 25.2°F-3.8°C 86% 2.3 mph SW3.7 kmh SW 9.2 mph14.8 kmh 30.23 in1023.7 mb - 0.00 in0.0 mm 0.00 in0.0 mm
02:30 PM 28.7°F-1.8°C 24.8°F-4.0°C 85% 2.3 mph WSW3.7 kmh WSW 8.1 mph13.0 kmh 30.23 in1023.7 mb - 0.00 in0.0 mm 0.00 in0.0 mm
02:20 PM 28.5°F-1.9°C 24.9°F-3.9°C 86% 1.2 mph WSW1.9 kmh WSW 4.6 mph7.4 kmh 30.23 in1023.7 mb - 0.00 in0.0 mm 0.00 in0.0 mm
02:10 PM 28.3°F-2.1°C 24.6°F-4.1°C 86% 2.3 mph SW3.7 kmh SW 5.8 mph9.3 kmh 30.24 in1024.0 mb - 0.00 in0.0 mm 0.00 in0.0 mm
02:00 PM 28.1°F-2.2°C 24.4°F-4.2°C 86% 3.5 mph SW5.6 kmh SW 9.2 mph14.8 kmh 30.24 in1024.0 mb - 0.00 in0.0 mm 0.00 in0.0 mm
01:50 PM 27.8°F-2.3°C 24.2°F-4.3°C 86% 2.3 mph SW3.7 kmh SW 4.6 mph7.4 kmh 30.23 in1023.7 mb - 0.00 in0.0 mm 0.00 in0.0 mm
01:40 PM 27.6°F-2.4°C 24.0°F-4.4°C 86% 3.5 mph SW5.6 kmh SW 6.9 mph11.1 kmh 30.23 in1023.7 mb - 0.00 in0.0 mm 0.00 in0.0 mm
01:30 PM 27.4°F-2.6°C 23.8°F-4.6°C 86% 1.2 mph SSW1.9 kmh SSW 3.5 mph5.6 kmh 30.24 in1024.0 mb - 0.00 in0.0 mm 0.00 in0.0 mm
01:20 PM 27.2°F-2.7°C 23.5°F-4.7°C 86% 2.3 mph SW3.7 kmh SW 3.5 mph5.6 kmh 30.24 in1024.0 mb - 0.00 in0.0 mm 0.00 in0.0 mm
01:10 PM 27.0°F-2.8°C 23.4°F-4.8°C 86% 3.5 mph SSW5.6 kmh SSW 9.2 mph14.8 kmh 30.24 in1024.0 mb - 0.00 in0.0 mm 0.00 in0.0 mm
01:00 PM 26.8°F-2.9°C 23.2°F-4.9°C 86% 3.5 mph SW5.6 kmh SW 11.5 mph18.5 kmh 30.24 in1024.0 mb - 0.00 in0.0 mm 0.00 in0.0 mm
12:50 PM 26.6°F-3.0°C 23.0°F-5.0°C 86% 2.3 mph SSW3.7 kmh SSW 4.6 mph7.4 kmh 30.24 in1024.0 mb - 0.00 in0.0 mm 0.00 in0.0 mm
12:40 PM 26.4°F-3.1°C 22.8°F-5.1°C 86% 2.3 mph SSW3.7 kmh SSW 4.6 mph7.4 kmh 30.24 in1024.0 mb - 0.00 in0.0 mm 0.00 in0.0 mm
12:30 PM 26.3°F-3.2°C 22.7°F-5.2°C 86% 2.3 mph SSW3.7 kmh SSW 10.4 mph16.7 kmh 30.25 in1024.4 mb - 0.00 in0.0 mm 0.00 in0.0 mm
12:20 PM 26.2°F-3.2°C 22.6°F-5.2°C 86% 2.3 mph SSW3.7 kmh SSW 4.6 mph7.4 kmh 30.25 in1024.4 mb - 0.00 in0.0 mm 0.00 in0.0 mm
12:10 PM 26.1°F-3.3°C 22.5°F-5.3°C 86% 2.3 mph S3.7 kmh S 3.5 mph5.6 kmh 30.25 in1024.4 mb - 0.00 in0.0 mm 0.00 in0.0 mm
12:00 PM 26.0°F-3.3°C 22.4°F-5.3°C 86% 2.3 mph SSW3.7 kmh SSW 4.6 mph7.4 kmh 30.25 in1024.4 mb - 0.00 in0.0 mm 0.00 in0.0 mm
11:50 AM 25.9°F-3.4°C 22.3°F-5.4°C 86% 1.2 mph SSW1.9 kmh SSW 1.2 mph1.9 kmh 30.26 in1024.7 mb - 0.00 in0.0 mm 0.00 in0.0 mm
11:40 AM 25.7°F-3.5°C 22.4°F-5.3°C 87% 2.3 mph SW3.7 kmh SW 3.5 mph5.6 kmh 30.26 in1024.7 mb - 0.00 in0.0 mm 0.00 in0.0 mm
11:30 AM 25.6°F-3.6°C 22.3°F-5.4°C 87% 2.3 mph SSW3.7 kmh SSW 3.5 mph5.6 kmh 30.26 in1024.7 mb - 0.00 in0.0 mm 0.00 in0.0 mm
11:20 AM 25.4°F-3.7°C 22.1°F-5.5°C 87% 2.3 mph SSW3.7 kmh SSW 5.8 mph9.3 kmh 30.26 in1024.7 mb - 0.00 in0.0 mm 0.00 in0.0 mm
11:10 AM 25.2°F-3.8°C 21.8°F-5.7°C 87% 2.3 mph SSW3.7 kmh SSW 3.5 mph5.6 kmh 30.27 in1025.1 mb - 0.00 in0.0 mm 0.00 in0.0 mm
11:00 AM 25.0°F-3.9°C 21.9°F-5.6°C 88% 2.3 mph SW3.7 kmh SW 5.8 mph9.3 kmh 30.28 in1025.4 mb - 0.00 in0.0 mm 0.00 in0.0 mm
10:50 AM 24.9°F-3.9°C 21.6°F-5.8°C 87% 3.5 mph SW5.6 kmh SW 5.8 mph9.3 kmh 30.28 in1025.4 mb - 0.00 in0.0 mm 0.00 in0.0 mm
10:40 AM 25.0°F-3.9°C 21.7°F-5.7°C 87% 2.3 mph SW3.7 kmh SW 5.8 mph9.3 kmh 30.28 in1025.4 mb - 0.00 in0.0 mm 0.00 in0.0 mm
10:30 AM 25.2°F-3.8°C 21.9°F-5.6°C 87% 2.3 mph WSW3.7 kmh WSW 2.3 mph3.7 kmh 30.28 in1025.4 mb - 0.00 in0.0 mm 0.00 in0.0 mm
10:20 AM 25.3°F-3.7°C 22.0°F-5.6°C 87% 1.2 mph WNW1.9 kmh WNW 6.9 mph11.1 kmh 30.28 in1025.4 mb - 0.00 in0.0 mm 0.00 in0.0 mm
10:10 AM 25.6°F-3.6°C 22.3°F-5.4°C 87% 3.5 mph SW5.6 kmh SW 5.8 mph9.3 kmh 30.28 in1025.4 mb - 0.00 in0.0 mm 0.00 in0.0 mm
10:00 AM 25.8°F-3.4°C 22.5°F-5.3°C 87% 1.2 mph WSW1.9 kmh WSW 4.6 mph7.4 kmh 30.27 in1025.1 mb - 0.00 in0.0 mm 0.00 in0.0 mm
09:50 AM 26.1°F-3.3°C 22.2°F-5.4°C 85% 1.2 mph WSW1.9 kmh WSW 3.5 mph5.6 kmh 30.27 in1025.1 mb - 0.00 in0.0 mm 0.00 in0.0 mm
09:40 AM 26.8°F-2.9°C 23.8°F-4.6°C 88% 1.2 mph WNW1.9 kmh WNW 3.5 mph5.6 kmh 30.27 in1025.1 mb - 0.00 in0.0 mm 0.00 in0.0 mm
09:30 AM 27.2°F-2.7°C 24.1°F-4.4°C 88% 1.2 mph W1.9 kmh W 5.8 mph9.3 kmh 30.27 in1025.1 mb - 0.00 in0.0 mm 0.00 in0.0 mm
09:20 AM 27.4°F-2.6°C 24.3°F-4.3°C 88% 2.3 mph W3.7 kmh W 4.6 mph7.4 kmh 30.27 in1025.1 mb - 0.00 in0.0 mm 0.00 in0.0 mm
09:10 AM 27.3°F-2.6°C 23.4°F-4.8°C 85% 3.5 mph WSW5.6 kmh WSW 6.9 mph11.1 kmh 30.27 in1025.1 mb - 0.00 in0.0 mm 0.00 in0.0 mm
09:00 AM 27.3°F-2.6°C 23.7°F-4.6°C 86% 1.2 mph SW1.9 kmh SW 5.8 mph9.3 kmh 30.26 in1024.7 mb - 0.00 in0.0 mm 0.00 in0.0 mm
08:50 AM 27.2°F-2.7°C 23.3°F-4.8°C 85% 2.3 mph WSW3.7 kmh WSW 6.9 mph11.1 kmh 30.25 in1024.4 mb - 0.00 in0.0 mm 0.00 in0.0 mm
08:40 AM 27.3°F-2.6°C 23.1°F-4.9°C 84% 4.6 mph WSW7.4 kmh WSW 4.6 mph7.4 kmh 30.24 in1024.0 mb - 0.00 in0.0 mm 0.00 in0.0 mm
08:30 AM 27.5°F-2.5°C 23.6°F-4.7°C 85% 4.6 mph WSW7.4 kmh WSW 8.1 mph13.0 kmh 30.25 in1024.4 mb - 0.00 in0.0 mm 0.00 in0.0 mm
08:20 AM 27.7°F-2.4°C 23.8°F-4.6°C 85% 3.5 mph WSW5.6 kmh WSW 10.4 mph16.7 kmh 30.25 in1024.4 mb - 0.00 in0.0 mm 0.00 in0.0 mm
08:10 AM 27.9°F-2.3°C 24.3°F-4.3°C 86% 2.3 mph SW3.7 kmh SW 3.5 mph5.6 kmh 30.26 in1024.7 mb - 0.00 in0.0 mm 0.00 in0.0 mm
08:00 AM 27.9°F-2.3°C 24.3°F-4.3°C 86% 5.8 mph WSW9.3 kmh WSW 11.5 mph18.5 kmh 30.27 in1025.1 mb - 0.00 in0.0 mm 0.00 in0.0 mm
07:50 AM 28.0°F-2.2°C 24.1°F-4.4°C 85% 3.5 mph WSW5.6 kmh WSW 9.2 mph14.8 kmh 30.27 in1025.1 mb - 0.00 in0.0 mm 0.00 in0.0 mm
07:40 AM 28.2°F-2.1°C 24.5°F-4.2°C 86% 2.3 mph SW3.7 kmh SW 3.5 mph5.6 kmh 30.27 in1025.1 mb - 0.00 in0.0 mm 0.00 in0.0 mm
07:30 AM 28.3°F-2.1°C 24.6°F-4.1°C 86% 4.6 mph WSW7.4 kmh WSW 8.1 mph13.0 kmh 30.27 in1025.1 mb - 0.00 in0.0 mm 0.00 in0.0 mm
07:20 AM 28.5°F-1.9°C 24.8°F-4.0°C 86% 1.2 mph SW1.9 kmh SW 3.5 mph5.6 kmh 30.27 in1025.1 mb - 0.00 in0.0 mm 0.00 in0.0 mm
07:10 AM 28.6°F-1.9°C 24.7°F-4.1°C 85% 1.2 mph W1.9 kmh W 5.8 mph9.3 kmh 30.28 in1025.4 mb - 0.00 in0.0 mm 0.00 in0.0 mm
07:00 AM 28.7°F-1.8°C 25.0°F-3.9°C 86% 3.5 mph WSW5.6 kmh WSW 3.5 mph5.6 kmh 30.28 in1025.4 mb - 0.00 in0.0 mm 0.00 in0.0 mm
06:50 AM 28.7°F-1.8°C 25.0°F-3.9°C 86% 3.5 mph SSW5.6 kmh SSW 5.8 mph9.3 kmh 30.27 in1025.1 mb - 0.00 in0.0 mm 0.00 in0.0 mm
06:40 AM 28.7°F-1.8°C 24.8°F-4.0°C 85% 3.5 mph WSW5.6 kmh WSW 8.1 mph13.0 kmh 30.27 in1025.1 mb - 0.00 in0.0 mm 0.00 in0.0 mm
06:30 AM 28.8°F-1.8°C 24.9°F-3.9°C 85% 2.3 mph SW3.7 kmh SW 3.5 mph5.6 kmh 30.27 in1025.1 mb - 0.00 in0.0 mm 0.00 in0.0 mm
06:20 AM 29.2°F-1.6°C 24.9°F-3.9°C 84% 2.3 mph WSW3.7 kmh WSW 8.1 mph13.0 kmh 30.27 in1025.1 mb - 0.00 in0.0 mm 0.00 in0.0 mm
06:10 AM 29.4°F-1.4°C 25.7°F-3.5°C 86% 2.3 mph SW3.7 kmh SW 8.1 mph13.0 kmh 30.27 in1025.1 mb - 0.00 in0.0 mm 0.00 in0.0 mm
06:00 AM 29.4°F-1.4°C 25.7°F-3.5°C 86% 2.3 mph WSW3.7 kmh WSW 3.5 mph5.6 kmh 30.26 in1024.7 mb - 0.00 in0.0 mm 0.00 in0.0 mm
05:50 AM 29.4°F-1.4°C 25.7°F-3.5°C 86% 2.3 mph W3.7 kmh W 10.4 mph16.7 kmh 30.26 in1024.7 mb - 0.00 in0.0 mm 0.00 in0.0 mm
05:40 AM 29.4°F-1.4°C 25.7°F-3.5°C 86% 3.5 mph WSW5.6 kmh WSW 3.5 mph5.6 kmh 30.27 in1025.1 mb - 0.00 in0.0 mm 0.00 in0.0 mm
05:30 AM 29.1°F-1.6°C 26.0°F-3.3°C 88% 3.5 mph WSW5.6 kmh WSW 4.6 mph7.4 kmh 30.27 in1025.1 mb - 0.00 in0.0 mm 0.00 in0.0 mm
05:20 AM 28.7°F-1.8°C 25.9°F-3.4°C 89% 2.3 mph WSW3.7 kmh WSW 8.1 mph13.0 kmh 30.28 in1025.4 mb - 0.00 in0.0 mm 0.00 in0.0 mm
05:10 AM 28.3°F-2.1°C 25.7°F-3.5°C 90% 2.3 mph SW3.7 kmh SW 2.3 mph3.7 kmh 30.28 in1025.4 mb - 0.00 in0.0 mm 0.00 in0.0 mm
05:00 AM 27.6°F-2.4°C 25.3°F-3.7°C 91% 1.2 mph SSW1.9 kmh SSW 3.5 mph5.6 kmh 30.28 in1025.4 mb - 0.00 in0.0 mm 0.00 in0.0 mm
04:50 AM 26.8°F-2.9°C 25.0°F-3.9°C 93% 1.2 mph SW1.9 kmh SW 2.3 mph3.7 kmh 30.28 in1025.4 mb - 0.00 in0.0 mm 0.00 in0.0 mm
04:40 AM 25.7°F-3.5°C 24.2°F-4.3°C 94% 4.6 mph SW7.4 kmh SW 3.5 mph5.6 kmh 30.27 in1025.1 mb - 0.00 in0.0 mm 0.00 in0.0 mm
04:30 AM 24.5°F-4.2°C 23.0°F-5.0°C 94% 2.3 mph SW3.7 kmh SW 5.8 mph9.3 kmh 30.28 in1025.4 mb - 0.00 in0.0 mm 0.00 in0.0 mm
04:20 AM 23.6°F-4.7°C 22.1°F-5.5°C 94% 2.3 mph SSW3.7 kmh SSW 2.3 mph3.7 kmh 30.28 in1025.4 mb - 0.00 in0.0 mm 0.00 in0.0 mm
04:10 AM 23.2°F-4.9°C 21.7°F-5.7°C 94% Calm Calm 1.2 mph1.9 kmh 30.29 in1025.7 mb - 0.00 in0.0 mm 0.00 in0.0 mm
04:00 AM 22.6°F-5.2°C 20.9°F-6.2°C 93% 1.2 mph SSW1.9 kmh SSW 2.3 mph3.7 kmh 30.29 in1025.7 mb - 0.00 in0.0 mm 0.00 in0.0 mm
03:50 AM 22.6°F-5.2°C 20.9°F-6.2°C 93% 1.2 mph S1.9 kmh S 2.3 mph3.7 kmh 30.29 in1025.7 mb - 0.00 in0.0 mm 0.00 in0.0 mm
03:40 AM 22.7°F-5.2°C 21.0°F-6.1°C 93% 1.2 mph SW1.9 kmh SW 2.3 mph3.7 kmh 30.30 in1026.1 mb - 0.00 in0.0 mm 0.00 in0.0 mm
03:30 AM 22.5°F-5.3°C 20.8°F-6.2°C 93% Calm Calm 2.3 mph3.7 kmh 30.30 in1026.1 mb - 0.00 in0.0 mm 0.00 in0.0 mm
03:20 AM 22.2°F-5.4°C 20.5°F-6.4°C 93% 1.2 mph SSW1.9 kmh SSW 2.3 mph3.7 kmh 30.31 in1026.4 mb - 0.00 in0.0 mm 0.00 in0.0 mm
03:10 AM 22.1°F-5.5°C 20.1°F-6.6°C 92% Calm Calm 2.3 mph3.7 kmh 30.31 in1026.4 mb - 0.00 in0.0 mm 0.00 in0.0 mm
03:00 AM 22.2°F-5.4°C 20.2°F-6.6°C 92% 2.3 mph SW3.7 kmh SW 4.6 mph7.4 kmh 30.32 in1026.8 mb - 0.00 in0.0 mm 0.00 in0.0 mm
02:50 AM 22.4°F-5.3°C 20.4°F-6.4°C 92% Calm Calm 1.2 mph1.9 kmh 30.32 in1026.8 mb - 0.00 in0.0 mm 0.00 in0.0 mm
02:40 AM 22.6°F-5.2°C 20.4°F-6.4°C 91% Calm Calm 3.5 mph5.6 kmh 30.32 in1026.8 mb - 0.00 in0.0 mm 0.00 in0.0 mm
02:30 AM 22.8°F-5.1°C 20.6°F-6.3°C 91% 1.2 mph SW1.9 kmh SW 2.3 mph3.7 kmh 30.32 in1026.8 mb - 0.00 in0.0 mm 0.00 in0.0 mm
02:20 AM 23.1°F-4.9°C 20.6°F-6.3°C 90% 1.2 mph S1.9 kmh S 3.5 mph5.6 kmh 30.32 in1026.8 mb - 0.00 in0.0 mm 0.00 in0.0 mm
02:10 AM 23.4°F-4.8°C 21.2°F-6.0°C 91% 1.2 mph SW1.9 kmh SW 3.5 mph5.6 kmh 30.33 in1027.1 mb - 0.00 in0.0 mm 0.00 in0.0 mm
02:00 AM 23.4°F-4.8°C 21.1°F-6.1°C 91% 1.2 mph SW1.9 kmh SW 1.2 mph1.9 kmh 30.33 in1027.1 mb - 0.00 in0.0 mm 0.00 in0.0 mm
01:50 AM 23.4°F-4.8°C 21.2°F-6.0°C 91% 1.2 mph SW1.9 kmh SW 3.5 mph5.6 kmh 30.33 in1027.1 mb - 0.00 in0.0 mm 0.00 in0.0 mm
01:40 AM 23.1°F-4.9°C 20.9°F-6.2°C 91% 3.5 mph SSW5.6 kmh SSW 5.8 mph9.3 kmh 30.33 in1027.1 mb - 0.00 in0.0 mm 0.00 in0.0 mm
01:30 AM 23.1°F-4.9°C 20.9°F-6.2°C 91% 2.3 mph SSW3.7 kmh SSW 4.6 mph7.4 kmh 30.34 in1027.4 mb - 0.00 in0.0 mm 0.00 in0.0 mm
01:20 AM 23.0°F-5.0°C 20.8°F-6.2°C 91% 2.3 mph S3.7 kmh S 5.8 mph9.3 kmh 30.34 in1027.4 mb - 0.00 in0.0 mm 0.00 in0.0 mm
01:10 AM 22.6°F-5.2°C 20.4°F-6.4°C 91% 3.5 mph S5.6 kmh S 5.8 mph9.3 kmh 30.34 in1027.4 mb - 0.00 in0.0 mm 0.00 in0.0 mm
01:00 AM 22.3°F-5.4°C 20.1°F-6.6°C 91% 2.3 mph SW3.7 kmh SW 3.5 mph5.6 kmh 30.35 in1027.8 mb - 0.00 in0.0 mm 0.00 in0.0 mm
12:50 AM 22.2°F-5.4°C 20.0°F-6.7°C 91% 1.2 mph S1.9 kmh S 2.3 mph3.7 kmh 30.35 in1027.8 mb - 0.00 in0.0 mm 0.00 in0.0 mm
12:40 AM 21.9°F-5.6°C 19.7°F-6.8°C 91% 3.5 mph S5.6 kmh S 4.6 mph7.4 kmh 30.36 in1028.1 mb - 0.00 in0.0 mm 0.00 in0.0 mm
12:30 AM 21.8°F-5.7°C 19.6°F-6.9°C 91% 2.3 mph SSW3.7 kmh SSW 3.5 mph5.6 kmh 30.36 in1028.1 mb - 0.00 in0.0 mm 0.00 in0.0 mm
12:20 AM 21.7°F-5.7°C 19.2°F-7.1°C 90% 1.2 mph S1.9 kmh S 3.5 mph5.6 kmh 30.36 in1028.1 mb - 0.00 in0.0 mm 0.00 in0.0 mm
12:10 AM 21.9°F-5.6°C 19.4°F-7.0°C 90% 1.2 mph S1.9 kmh S 3.5 mph5.6 kmh 30.37 in1028.4 mb - 0.00 in0.0 mm 0.00 in0.0 mm
12:00 AM 21.8°F-5.7°C 19.6°F-6.9°C 91% 1.2 mph S1.9 kmh S 2.3 mph3.7 kmh 30.38 in1028.8 mb - 0.00 in0.0 mm 0.00 in0.0 mm